< < Back
Terminal Aerodrome Forecast


Current Version              Previous Versions:   1  2  3  4  5  6  7  8  9  

Terminal Aerodrome Forecast

267
FTUS44 KBMX 270520
TAFMGM
TAF
KMGM 270520Z 2706/2806 VRB03KT P6SM SCT012 SCT250
     FM270900 VRB02KT 3SM BR BKN004 BKN012
      TEMPO 2710/2712 1/2SM FG BKN001
     FM271300 VRB04KT 4SM BR BKN007
     FM271600 12007KT P6SM SCT035 SCT110
     FM271900 13008KT P6SM VCTS BKN035CB
     FM280100 VRB03KT P6SM SCT100 SCT250=

Latest METAR

995
SAUS80 KWBC 271000
MTRMGM
METAR KMGM 270953Z AUTO 00000KT 10SM BKN023 OVC030 20/18 A3019 RMK AO2
SLP221 T02000183


USA.gov is the U.S. government's official web portal to all federal, state and local government web resources and services.